Home > Products > Valid Products > TAF

000
FTUS45 KBYZ 232320
TAFMLS
TAF
KMLS 232320Z 2400/2424 31012KT P6SM FEW070 OVC100
     FM240300 32006KT P6SM SCT100
     FM241100 31007KT P6SM VCSH OVC060=



000
FTUS45 KBYZ 232320
TAFBIL
TAF
KBIL 232320Z 2400/2424 27014G24KT P6SM SCT100
     FM240100 26014KT P6SM SCT100
     FM240700 27016KT P6SM VCSH BKN080
     FM241200 27017G24KT P6SM VCSH BKN080=



000
FTUS45 KBYZ 232320
TAFSHR
TAF
KSHR 232320Z 2400/2424 32012G22KT P6SM VCSH SCT060 BKN080
     FM240200 30008KT P6SM SCT050 BKN100
     FM241200 30012KT P6SM VCSH SCT060 BKN100
     FM241700 31023G31KT P6SM OVC060=



000
FTUS45 KBYZ 232320
TAFLVM
TAF
KLVM 232320Z 2400/2424 25020G30KT P6SM FEW040 BKN080
     FM240400 23028G38KT P6SM VCSH BKN080
     FM241400 25018G28KT P6SM VCSH BKN080
     FM241800 25024G32KT P6SM BKN100=



000
FTUS45 KBYZ 232320
TAFSHR
TAF
KSHR 232320Z 2400/2424 32012G22KT P6SM VCSH SCT060 BKN080
     FM240200 30008KT P6SM SCT050 BKN100
     FM241200 30012KT P6SM VCSH SCT060 BKN100
     FM241700 31023G31KT P6SM OVC060=



000
FTUS45 KBYZ 232320
TAFLVM
TAF
KLVM 232320Z 2400/2424 25020G30KT P6SM FEW040 BKN080
     FM240400 23028G38KT P6SM VCSH BKN080
     FM241400 25018G28KT P6SM VCSH BKN080
     FM241800 25024G32KT P6SM BKN100=



000
FTUS45 KBYZ 232320
TAFBIL
TAF
KBIL 232320Z 2400/2424 27014G24KT P6SM SCT100
     FM240100 26014KT P6SM SCT100
     FM240700 27016KT P6SM VCSH BKN080
     FM241200 27017G24KT P6SM VCSH BKN080=



000
FTUS45 KBYZ 232320
TAFMLS
TAF
KMLS 232320Z 2400/2424 31012KT P6SM FEW070 OVC100
     FM240300 32006KT P6SM SCT100
     FM241100 31007KT P6SM VCSH OVC060=



000
FTUS45 KBYZ 231733
TAFMLS
TAF
KMLS 231733Z 2318/2418 31022G32KT P6SM BKN080
     FM232200 31014KT P6SM SCT080
     FM240200 31006KT P6SM SCT100=



000
FTUS45 KBYZ 231733
TAFBIL
TAF
KBIL 231733Z 2318/2418 27014G24KT P6SM SCT100
     FM232000 31016G26KT P6SM SCT100
     FM240100 26014KT P6SM SCT100
     FM240700 27016KT P6SM VCSH BKN080=



000
FTUS45 KBYZ 231733
TAFSHR
TAF
KSHR 231733Z 2318/2418 32022G32KT P6SM VCSH BKN080
     FM232100 32014G24KT P6SM BKN080
     FM240100 30008KT P6SM SCT100=



000
FTUS45 KBYZ 231733
TAFLVM
TAF
KLVM 231733Z 2318/2418 25020G30KT P6SM FEW040 BKN080
     FM240400 23028G38KT P6SM VCSH BKN080
     FM241400 25018G28KT P6SM VCSH BKN080=



000
FTUS45 KBYZ 231733
TAFLVM
TAF
KLVM 231733Z 2318/2418 25020G30KT P6SM FEW040 BKN080
     FM240400 23028G38KT P6SM VCSH BKN080
     FM241400 25018G28KT P6SM VCSH BKN080=



000
FTUS45 KBYZ 231733
TAFBIL
TAF
KBIL 231733Z 2318/2418 27014G24KT P6SM SCT100
     FM232000 31016G26KT P6SM SCT100
     FM240100 26014KT P6SM SCT100
     FM240700 27016KT P6SM VCSH BKN080=



000
FTUS45 KBYZ 231733
TAFMLS
TAF
KMLS 231733Z 2318/2418 31022G32KT P6SM BKN080
     FM232200 31014KT P6SM SCT080
     FM240200 31006KT P6SM SCT100=



000
FTUS45 KBYZ 231733
TAFSHR
TAF
KSHR 231733Z 2318/2418 32022G32KT P6SM VCSH BKN080
     FM232100 32014G24KT P6SM BKN080
     FM240100 30008KT P6SM SCT100=



000
FTUS45 KBYZ 231137
TAFSHR
TAF
KSHR 231137Z 2312/2412 31014KT P6SM SKC
     FM231700 31024G31KT P6SM BKN100
     FM240100 30013KT P6SM BKN250=



000
FTUS45 KBYZ 231137
TAFLVM
TAF
KLVM 231137Z 2312/2412 25019G25KT P6SM FEW040 BKN080 OVC110
     FM231500 25017G24KT P6SM OVC060
     FM240100 24026G35KT P6SM OVC100
     FM240900 27020G30KT P6SM VCSH BKN050=



000
FTUS45 KBYZ 231137
TAFBIL
TAF
KBIL 231137Z 2312/2412 29017G26KT P6SM SCT100
     FM231800 31021G29KT P6SM BKN100
     FM240300 26014KT P6SM BKN080
     FM241000 29020KT P6SM VCSH BKN050=



000
FTUS45 KBYZ 231137
TAFMLS
TAF
KMLS 231137Z 2312/2412 29020G31KT P6SM FEW050 OVC100
     FM231800 31026G35KT P6SM OVC060
     FM240100 31009KT P6SM SKC=



000
FTUS45 KBYZ 231137
TAFMLS
TAF
KMLS 231137Z 2312/2412 29020G31KT P6SM FEW050 OVC100
     FM231800 31026G35KT P6SM OVC060
     FM240100 31009KT P6SM SKC=



000
FTUS45 KBYZ 231137
TAFBIL
TAF
KBIL 231137Z 2312/2412 29017G26KT P6SM SCT100
     FM231800 31021G29KT P6SM BKN100
     FM240300 26014KT P6SM BKN080
     FM241000 29020KT P6SM VCSH BKN050=



000
FTUS45 KBYZ 231137
TAFLVM
TAF
KLVM 231137Z 2312/2412 25019G25KT P6SM FEW040 BKN080 OVC110
     FM231500 25017G24KT P6SM OVC060
     FM240100 24026G35KT P6SM OVC100
     FM240900 27020G30KT P6SM VCSH BKN050=



000
FTUS45 KBYZ 231137
TAFSHR
TAF
KSHR 231137Z 2312/2412 31014KT P6SM SKC
     FM231700 31024G31KT P6SM BKN100
     FM240100 30013KT P6SM BKN250=



000
FTUS45 KBYZ 230530
TAFLVM
TAF
KLVM 230530Z 2306/2406 23013KT P6SM OVC060
     FM231500 25017G24KT P6SM OVC060
     FM240100 24026G35KT P6SM OVC100=



000
FTUS45 KBYZ 230530
TAFBIL
TAF
KBIL 230530Z 2306/2406 29013G23KT P6SM SCT100
     FM231500 28017G24KT P6SM BKN100
     FM240300 26014KT P6SM BKN250=



000
FTUS45 KBYZ 230530
TAFBIL
TAF
KBIL 230530Z 2306/2406 29013G23KT P6SM SCT100
     FM231500 28017G24KT P6SM BKN100
     FM240300 26014KT P6SM BKN250=



000
FTUS45 KBYZ 230530
TAFSHR
TAF
KSHR 230530Z 2306/2406 29007KT P6SM SCT120
     FM231700 31024G31KT P6SM BKN100
     FM240100 30013KT P6SM BKN250=



000
FTUS45 KBYZ 230530
TAFMLS
TAF
KMLS 230530Z 2306/2406 30028G34KT P6SM VCSH BKN080
     FM231000 28020G27KT P6SM BKN080
     FM231800 31026G35KT P6SM OVC060
     FM240100 31009KT P6SM SKC=



000
FTUS45 KBYZ 230530
TAFSHR
TAF
KSHR 230530Z 2306/2406 29007KT P6SM SCT120
     FM231700 31024G31KT P6SM BKN100
     FM240100 30013KT P6SM BKN250=



000
FTUS45 KBYZ 230530
TAFMLS
TAF
KMLS 230530Z 2306/2406 30028G34KT P6SM VCSH BKN080
     FM231000 28020G27KT P6SM BKN080
     FM231800 31026G35KT P6SM OVC060
     FM240100 31009KT P6SM SKC=



000
FTUS45 KBYZ 230530
TAFLVM
TAF
KLVM 230530Z 2306/2406 23013KT P6SM OVC060
     FM231500 25017G24KT P6SM OVC060
     FM240100 24026G35KT P6SM OVC100=



000
FTUS45 KBYZ 230323 AAB
TAFSHR
TAF AMD
KSHR 230323Z 2303/2324 28007KT P6SM VCSH OVC090
     FM230500 30012KT P6SM SCT030 BKN100
     FM231600 31022G29KT P6SM BKN100=



000
FTUS45 KBYZ 230323 AAB
TAFSHR
TAF AMD
KSHR 230323Z 2303/2324 28007KT P6SM VCSH OVC090
     FM230500 30012KT P6SM SCT030 BKN100
     FM231600 31022G29KT P6SM BKN100=



000
FTUS45 KBYZ 230322 AAB
TAFMLS
TAF AMD
KMLS 230322Z 2303/2324 29015KT P6SM VCSH OVC100
     FM231000 28020G27KT P6SM BKN080
     FM231800 31026G35KT P6SM OVC060=



000
FTUS45 KBYZ 230322 AAB
TAFMLS
TAF AMD
KMLS 230322Z 2303/2324 29015KT P6SM VCSH OVC100
     FM231000 28020G27KT P6SM BKN080
     FM231800 31026G35KT P6SM OVC060=



000
FTUS45 KBYZ 230318 AAA
TAFBIL
TAF AMD
KBIL 230318Z 2303/2324 28012KT P6SM VCSH BKN100
     FM230600 26019G28KT P6SM BKN250
     FM231500 28017G24KT P6SM BKN100=



000
FTUS45 KBYZ 230109 AAA
TAFMLS
TAF AMD
KMLS 230109Z 2301/2324 26017G27KT P6SM -SHRA SCT035 BKN060
     FM230200 26014G21KT P6SM VCSH SCT060 BKN250
     FM230500 28020G30KT P6SM BKN080=



000
FTUS45 KBYZ 230109 AAA
TAFMLS
TAF AMD
KMLS 230109Z 2301/2324 26017G27KT P6SM -SHRA SCT035 BKN060
     FM230200 26014G21KT P6SM VCSH SCT060 BKN250
     FM230500 28020G30KT P6SM BKN080=



000
FTUS45 KBYZ 230108 AAA
TAFSHR
TAF AMD
KSHR 230108Z 2301/2324 31027G37KT P6SM VCSH FEW030 BKN050 OVC100
     FM230500 30012KT P6SM SCT030 BKN100
     FM231600 31022G29KT P6SM BKN100=



000
FTUS45 KBYZ 230108 AAA
TAFSHR
TAF AMD
KSHR 230108Z 2301/2324 31027G37KT P6SM VCSH FEW030 BKN050 OVC100
     FM230500 30012KT P6SM SCT030 BKN100
     FM231600 31022G29KT P6SM BKN100=



000
FTUS45 KBYZ 222320
TAFBIL
TAF
KBIL 222320Z 2300/2324 25014KT P6SM VCSH BKN100
     FM230200 26019G28KT P6SM BKN250
     FM230600 28020G30KT P6SM BKN100=



000
FTUS45 KBYZ 222320
TAFLVM
TAF
KLVM 222320Z 2300/2324 25023G35KT P6SM VCSH BKN060 OVC090
     FM230100 25023G33KT P6SM BKN100
     FM230700 26026G36KT P6SM BKN070=



000
FTUS45 KBYZ 222320
TAFMLS
TAF
KMLS 222320Z 2300/2324 23012KT P6SM -SHRA SCT035 BKN060
     FM230200 26014G21KT P6SM VCSH SCT060 BKN250
     FM230500 28020G30KT P6SM BKN080=



000
FTUS45 KBYZ 222320
TAFSHR
TAF
KSHR 222320Z 2300/2324 25010G20KT P6SM BKN100
     FM230200 30012KT P6SM BKN100
     FM231600 31022G29KT P6SM BKN100=



000
FTUS45 KBYZ 222320
TAFSHR
TAF
KSHR 222320Z 2300/2324 25010G20KT P6SM BKN100
     FM230200 30012KT P6SM BKN100
     FM231600 31022G29KT P6SM BKN100=



000
FTUS45 KBYZ 222320
TAFBIL
TAF
KBIL 222320Z 2300/2324 25014KT P6SM VCSH BKN100
     FM230200 26019G28KT P6SM BKN250
     FM230600 28020G30KT P6SM BKN100=



000
FTUS45 KBYZ 222320
TAFMLS
TAF
KMLS 222320Z 2300/2324 23012KT P6SM -SHRA SCT035 BKN060
     FM230200 26014G21KT P6SM VCSH SCT060 BKN250
     FM230500 28020G30KT P6SM BKN080=



000
FTUS45 KBYZ 222320
TAFLVM
TAF
KLVM 222320Z 2300/2324 25023G35KT P6SM VCSH BKN060 OVC090
     FM230100 25023G33KT P6SM BKN100
     FM230700 26026G36KT P6SM BKN070=



000
FTUS45 KBYZ 222145 AAA
TAFLVM
TAF AMD
KLVM 222145Z 2222/2318 24023G31KT P6SM VCSH BKN060 OVC080
     FM230100 25023G33KT P6SM BKN100
     FM230700 26026G36KT P6SM BKN070=



000
FTUS45 KBYZ 222145 AAA
TAFLVM
TAF AMD
KLVM 222145Z 2222/2318 24023G31KT P6SM VCSH BKN060 OVC080
     FM230100 25023G33KT P6SM BKN100
     FM230700 26026G36KT P6SM BKN070=



000
FTUS45 KBYZ 221735
TAFBIL
TAF
KBIL 221735Z 2218/2318 24014G22KT P6SM VCSH BKN100
     FM222100 28020G28KT P6SM VCSH BKN070
     FM230000 28025G35KT P6SM BKN080
     FM230600 28020G30KT P6SM BKN100=



000
FTUS45 KBYZ 221735
TAFLVM
TAF
KLVM 221735Z 2218/2318 22038G47KT P6SM VCSH FEW090 SCT110
     FM221900 25026G38KT P6SM VCSH BKN070
     FM230100 25032G44KT P6SM BKN100
     FM230700 26026G36KT P6SM BKN070=



000
FTUS45 KBYZ 221735
TAFMLS
TAF
KMLS 221735Z 2218/2318 18008KT P6SM -SHRA BKN060
     FM222000 24010KT P6SM VCSH BKN080
     FM222300 24014KT P6SM BKN080
     FM230500 28020G30KT P6SM BKN080=



000
FTUS45 KBYZ 221735
TAFSHR
TAF
KSHR 221735Z 2218/2318 26012G20KT P6SM VCSH BKN080
     FM222200 28012G22KT P6SM BKN100
     FM230200 30012KT P6SM BKN100=



000
FTUS45 KBYZ 221735
TAFBIL
TAF
KBIL 221735Z 2218/2318 24014G22KT P6SM VCSH BKN100
     FM222100 28020G28KT P6SM VCSH BKN070
     FM230000 28025G35KT P6SM BKN080
     FM230600 28020G30KT P6SM BKN100=



000
FTUS45 KBYZ 221735
TAFMLS
TAF
KMLS 221735Z 2218/2318 18008KT P6SM -SHRA BKN060
     FM222000 24010KT P6SM VCSH BKN080
     FM222300 24014KT P6SM BKN080
     FM230500 28020G30KT P6SM BKN080=



000
FTUS45 KBYZ 221735
TAFLVM
TAF
KLVM 221735Z 2218/2318 22038G47KT P6SM VCSH FEW090 SCT110
     FM221900 25026G38KT P6SM VCSH BKN070
     FM230100 25032G44KT P6SM BKN100
     FM230700 26026G36KT P6SM BKN070=



000
FTUS45 KBYZ 221735
TAFSHR
TAF
KSHR 221735Z 2218/2318 26012G20KT P6SM VCSH BKN080
     FM222200 28012G22KT P6SM BKN100
     FM230200 30012KT P6SM BKN100=



000
FTUS45 KBYZ 221130
TAFBIL
TAF
KBIL 221130Z 2212/2312 24008KT P6SM SCT150
     FM221500 24015G22KT P6SM BKN100
     FM222100 28020G28KT P6SM VCSH BKN070
     FM230000 28025G30KT P6SM BKN080=



000
FTUS45 KBYZ 221130
TAFMLS
TAF
KMLS 221130Z 2212/2312 15010KT P6SM BKN120
     FM221600 19008KT P6SM -SHRA BKN080
     FM222300 24015KT P6SM BKN060
     FM230400 28020KT P6SM BKN050=



000
FTUS45 KBYZ 221130
TAFLVM
TAF
KLVM 221130Z 2212/2312 22038G47KT P6SM VCSH FEW090 SCT110
     FM221900 25027G38KT P6SM VCSH BKN070
     FM230100 23035G45KT P6SM BKN100
     FM230700 26026G36KT P6SM BKN070=



000
FTUS45 KBYZ 221130
TAFSHR
TAF
KSHR 221130Z 2212/2312 00000KT P6SM BKN120
     FM221600 29007KT P6SM VCSH BKN070
     FM222200 30015KT P6SM BKN100=



000
FTUS45 KBYZ 221130
TAFMLS
TAF
KMLS 221130Z 2212/2312 15010KT P6SM BKN120
     FM221600 19008KT P6SM -SHRA BKN080
     FM222300 24015KT P6SM BKN060
     FM230400 28020KT P6SM BKN050=



000
FTUS45 KBYZ 221130
TAFLVM
TAF
KLVM 221130Z 2212/2312 22038G47KT P6SM VCSH FEW090 SCT110
     FM221900 25027G38KT P6SM VCSH BKN070
     FM230100 23035G45KT P6SM BKN100
     FM230700 26026G36KT P6SM BKN070=



000
FTUS45 KBYZ 221130
TAFBIL
TAF
KBIL 221130Z 2212/2312 24008KT P6SM SCT150
     FM221500 24015G22KT P6SM BKN100
     FM222100 28020G28KT P6SM VCSH BKN070
     FM230000 28025G30KT P6SM BKN080=



000
FTUS45 KBYZ 221130
TAFSHR
TAF
KSHR 221130Z 2212/2312 00000KT P6SM BKN120
     FM221600 29007KT P6SM VCSH BKN070
     FM222200 30015KT P6SM BKN100=



000
FTUS45 KBYZ 220535
TAFSHR
TAF
KSHR 220535Z 2206/2306 VRB05KT P6SM FEW100 BKN200
     FM222200 30015KT P6SM BKN100=



000
FTUS45 KBYZ 220535
TAFMLS
TAF
KMLS 220535Z 2206/2306 25011KT P6SM SCT200
     FM220900 15008KT P6SM BKN200
     FM222300 24015KT P6SM BKN080=



000
FTUS45 KBYZ 220535
TAFBIL
TAF
KBIL 220535Z 2206/2306 24013KT P6SM FEW100 BKN200
     FM221500 24015G22KT P6SM BKN100
     FM222100 28020G28KT P6SM VCSH BKN070=



000
FTUS45 KBYZ 220535
TAFLVM
TAF
KLVM 220535Z 2206/2306 24022G36KT P6SM FEW100 BKN150
     FM220900 22030G40KT P6SM VCSH BKN080
     FM230100 23035G45KT P6SM BKN100=



000
FTUS45 KBYZ 220535
TAFMLS
TAF
KMLS 220535Z 2206/2306 25011KT P6SM SCT200
     FM220900 15008KT P6SM BKN200
     FM222300 24015KT P6SM BKN080=



000
FTUS45 KBYZ 220535
TAFSHR
TAF
KSHR 220535Z 2206/2306 VRB05KT P6SM FEW100 BKN200
     FM222200 30015KT P6SM BKN100=



000
FTUS45 KBYZ 220535
TAFBIL
TAF
KBIL 220535Z 2206/2306 24013KT P6SM FEW100 BKN200
     FM221500 24015G22KT P6SM BKN100
     FM222100 28020G28KT P6SM VCSH BKN070=



000
FTUS45 KBYZ 220535
TAFLVM
TAF
KLVM 220535Z 2206/2306 24022G36KT P6SM FEW100 BKN150
     FM220900 22030G40KT P6SM VCSH BKN080
     FM230100 23035G45KT P6SM BKN100=



000
FTUS45 KBYZ 212323
TAFSHR
TAF
KSHR 212323Z 2200/2224 VRB05KT P6SM FEW100 BKN200=



000
FTUS45 KBYZ 212323
TAFMLS
TAF
KMLS 212323Z 2200/2224 25011KT P6SM SCT200
     FM220400 15008KT P6SM BKN200=



000
FTUS45 KBYZ 212323
TAFBIL
TAF
KBIL 212323Z 2200/2224 24013KT P6SM FEW100 BKN200
     FM221500 24015G22KT P6SM BKN100=



000
FTUS45 KBYZ 212323
TAFLVM
TAF
KLVM 212323Z 2200/2224 24020G32KT P6SM FEW100 BKN150
     FM220700 22033G48KT P6SM VCSH BKN080=



000
FTUS45 KBYZ 212323
TAFSHR
TAF
KSHR 212323Z 2200/2224 VRB05KT P6SM FEW100 BKN200=



000
FTUS45 KBYZ 212323
TAFLVM
TAF
KLVM 212323Z 2200/2224 24020G32KT P6SM FEW100 BKN150
     FM220700 22033G48KT P6SM VCSH BKN080=



000
FTUS45 KBYZ 212323
TAFMLS
TAF
KMLS 212323Z 2200/2224 25011KT P6SM SCT200
     FM220400 15008KT P6SM BKN200=



000
FTUS45 KBYZ 212323
TAFBIL
TAF
KBIL 212323Z 2200/2224 24013KT P6SM FEW100 BKN200
     FM221500 24015G22KT P6SM BKN100=



000
FTUS45 KBYZ 211723
TAFSHR
TAF
KSHR 211723Z 2118/2218 VRB05KT P6SM FEW100 BKN200=



000
FTUS45 KBYZ 211723
TAFBIL
TAF
KBIL 211723Z 2118/2218 24016KT P6SM FEW100 BKN200=



000
FTUS45 KBYZ 211723
TAFLVM
TAF
KLVM 211723Z 2118/2218 24020G32KT P6SM FEW100 BKN150
     FM220900 22033G48KT P6SM VCSH BKN080=



000
FTUS45 KBYZ 211723
TAFMLS
TAF
KMLS 211723Z 2118/2218 25011KT P6SM SCT200
     FM220300 15008KT P6SM BKN200=



000
FTUS45 KBYZ 211723
TAFMLS
TAF
KMLS 211723Z 2118/2218 25011KT P6SM SCT200
     FM220300 15008KT P6SM BKN200=



000
FTUS45 KBYZ 211723
TAFBIL
TAF
KBIL 211723Z 2118/2218 24016KT P6SM FEW100 BKN200=



000
FTUS45 KBYZ 211723
TAFSHR
TAF
KSHR 211723Z 2118/2218 VRB05KT P6SM FEW100 BKN200=



000
FTUS45 KBYZ 211723
TAFLVM
TAF
KLVM 211723Z 2118/2218 24020G32KT P6SM FEW100 BKN150
     FM220900 22033G48KT P6SM VCSH BKN080=



000
FTUS45 KBYZ 211120
TAFBIL
TAF
KBIL 211120Z 2112/2212 24017KT P6SM SKC
     FM220000 23014KT P6SM SCT120
     FM220400 23017G25KT P6SM FEW120=



000
FTUS45 KBYZ 211120
TAFSHR
TAF
KSHR 211120Z 2112/2212 13003KT P6SM SKC
     FM211400 27008KT P6SM SKC
     FM220000 VRB03KT P6SM BKN120=



000
FTUS45 KBYZ 211120
TAFMLS
TAF
KMLS 211120Z 2112/2212 21005KT P6SM SKC WS007/28034KT
     FM211800 24012G20KT P6SM SKC
     FM220300 15008KT P6SM FEW090 WS010/29030KT=



000
FTUS45 KBYZ 211120
TAFLVM
TAF
KLVM 211120Z 2112/2212 24016KT P6SM SKC
     FM211500 25020G30KT P6SM FEW070 BKN120
     FM212000 24026G36KT P6SM BKN100
     FM220800 23032G42KT P6SM BKN080=



000
FTUS45 KBYZ 211120
TAFSHR
TAF
KSHR 211120Z 2112/2212 13003KT P6SM SKC
     FM211400 27008KT P6SM SKC
     FM220000 VRB03KT P6SM BKN120=



000
FTUS45 KBYZ 211120
TAFLVM
TAF
KLVM 211120Z 2112/2212 24016KT P6SM SKC
     FM211500 25020G30KT P6SM FEW070 BKN120
     FM212000 24026G36KT P6SM BKN100
     FM220800 23032G42KT P6SM BKN080=



000
FTUS45 KBYZ 211120
TAFMLS
TAF
KMLS 211120Z 2112/2212 21005KT P6SM SKC WS007/28034KT
     FM211800 24012G20KT P6SM SKC
     FM220300 15008KT P6SM FEW090 WS010/29030KT=



000
FTUS45 KBYZ 211120
TAFBIL
TAF
KBIL 211120Z 2112/2212 24017KT P6SM SKC
     FM220000 23014KT P6SM SCT120
     FM220400 23017G25KT P6SM FEW120=



000
FTUS45 KBYZ 210526
TAFSHR
TAF
KSHR 210526Z 2106/2206 00000KT P6SM BKN120
      TEMPO 2106/2109 SCT120
     FM211400 27008KT P6SM SKC
     FM220000 VRB03KT P6SM BKN120=



000
FTUS45 KBYZ 210526
TAFMLS
TAF
KMLS 210526Z 2106/2206 15008KT P6SM SCT120 WS006/27031KT
     FM210900 24007KT P6SM SCT120 WS007/28034KT
     FM211800 24012G20KT P6SM SKC
     FM220300 15008KT P6SM FEW090=



000
FTUS45 KBYZ 210526
TAFBIL
TAF
KBIL 210526Z 2106/2206 23017G24KT P6SM SCT120
     FM220000 23014KT P6SM SCT120
     FM220400 23017G25KT P6SM FEW120=



000
FTUS45 KBYZ 210526
TAFLVM
TAF
KLVM 210526Z 2106/2206 25022G32KT P6SM SCT070
      TEMPO 2106/2109 BKN070
     FM211500 25018G28KT P6SM FEW070 BKN120
     FM220400 23023G33KT P6SM BKN120=



000
FTUS45 KBYZ 210526
TAFLVM
TAF
KLVM 210526Z 2106/2206 25022G32KT P6SM SCT070
      TEMPO 2106/2109 BKN070
     FM211500 25018G28KT P6SM FEW070 BKN120
     FM220400 23023G33KT P6SM BKN120=



000
FTUS45 KBYZ 210526
TAFMLS
TAF
KMLS 210526Z 2106/2206 15008KT P6SM SCT120 WS006/27031KT
     FM210900 24007KT P6SM SCT120 WS007/28034KT
     FM211800 24012G20KT P6SM SKC
     FM220300 15008KT P6SM FEW090=



000
FTUS45 KBYZ 210526
TAFSHR
TAF
KSHR 210526Z 2106/2206 00000KT P6SM BKN120
      TEMPO 2106/2109 SCT120
     FM211400 27008KT P6SM SKC
     FM220000 VRB03KT P6SM BKN120=



000
FTUS45 KBYZ 210526
TAFBIL
TAF
KBIL 210526Z 2106/2206 23017G24KT P6SM SCT120
     FM220000 23014KT P6SM SCT120
     FM220400 23017G25KT P6SM FEW120=



    US Dept of Commerce
    National Oceanic and Atmospheric Administration
    National Weather Service
    1325 East West Highway
    Silver Spring, MD 20910
    Page Author: NWS Internet Services Team
Disclaimer
Information Quality
Credits
Glossary
Privacy Policy
Freedom of Information Act (FOIA)
About Us
Career Opportunities